YXMK weather

Macksville Park Helicopter Landing Site
Macksville, New South Wales, Australia

Public forecast

Using degrees Celsius for public forecast. Weather courtesy of forecast.io.

METAR (pilot weather report)

Closest report is Port Macquarie Airport, 43.7 nm (80.9 km) S. Retrieved 2019/04/20 09:30 UTC (46 minutes ago):

YPMQ 200930Z AUTO 32007KT 2100 // SCT011 SCT019 BKN027 21/18 Q1024

TAF (pilot weather forecast)

Closest forecast is Taree Airport, 73.8 nm (136.6 km) SSW. Retrieved 2019/04/20 08:03 UTC (2 hours ago):

TAF YTRE 200650Z 2008/2020 08010KT 9999 -SHRA BKN030 FM200900 VRB03KT 9999 -SHRA SCT010 BKN020 PROB30 2015/2020 2000 BR BKN005